Time;durP1;ratioP1;P1;durP2;ratioP2;P2;SDS_P1;SDS_P2;PMS_P1;PMS_P2;Temp;Humidity;BMP_temperature;BMP_pressure;BME280_temperature;BME280_humidity;BME280_pressure;Samples;Min_cycle;Max_cycle;Signal;HPM_P1;HPM_P2
2021/08/28 00:01:46;;;;;;;9.90;7.67;;;;;;;14.95;100.00;101285.19;7395201;19;20748;-57
2021/08/28 00:04:16;;;;;;;22.60;14.73;;;;;;;14.99;100.00;101285.34;7402242;19;20455;-58
2021/08/28 00:06:48;;;;;;;15.80;10.53;;;;;;;14.98;100.00;101283.59;7394952;19;20482;-57
2021/08/28 00:09:18;;;;;;;9.43;6.97;;;;;;;15.03;100.00;101285.47;7400519;19;20865;-58
2021/08/28 00:11:47;;;;;;;18.90;13.03;;;;;;;15.03;100.00;101282.88;7394554;19;20414;-59
2021/08/28 00:14:17;;;;;;;12.10;8.17;;;;;;;15.08;100.00;101284.75;7402344;19;20395;-56
2021/08/28 00:16:46;;;;;;;24.60;14.53;;;;;;;15.09;100.00;101288.25;7393026;19;20407;-59
2021/08/28 00:19:16;;;;;;;10.97;8.20;;;;;;;15.15;100.00;101282.34;7401753;19;20392;-58
2021/08/28 00:21:45;;;;;;;19.70;13.50;;;;;;;15.16;100.00;101282.41;7394334;19;20459;-59
2021/08/28 00:24:17;;;;;;;21.30;13.63;;;;;;;15.32;100.00;101275.97;7401124;19;20452;-59
2021/08/28 00:26:47;;;;;;;10.30;6.40;;;;;;;15.19;100.00;101271.22;7392529;19;20483;-59
2021/08/28 00:29:17;;;;;;;11.37;8.30;;;;;;;15.06;100.00;101264.75;7401413;19;20447;-59
2021/08/28 00:31:46;;;;;;;12.40;8.67;;;;;;;15.05;100.00;101278.59;7394063;19;20748;-57
2021/08/28 00:34:15;;;;;;;7.50;6.40;;;;;;;15.03;100.00;101270.72;7400834;19;20416;-59
2021/08/28 00:36:45;;;;;;;8.03;6.40;;;;;;;14.93;100.00;101276.50;7392285;19;20507;-59
2021/08/28 00:39:17;;;;;;;9.07;6.23;;;;;;;14.85;100.00;101264.16;7401095;19;20384;-58
2021/08/28 00:41:46;;;;;;;5.77;4.73;;;;;;;14.71;100.00;101271.44;7393897;19;20399;-57
2021/08/28 00:44:16;;;;;;;13.93;9.40;;;;;;;14.87;100.00;101277.16;7399322;19;20388;-56
2021/08/28 00:46:45;;;;;;;9.00;6.70;;;;;;;14.88;100.00;101280.66;7374191;19;20383;-55
2021/08/28 00:49:15;;;;;;;9.70;4.33;;;;;;;14.74;100.00;101282.75;7399400;19;20396;-58
2021/08/28 00:51:45;;;;;;;8.60;5.90;;;;;;;14.65;100.00;101284.22;7400388;19;20472;-58
2021/08/28 00:54:17;;;;;;;17.57;10.93;;;;;;;14.72;100.00;101291.38;7400185;19;20845;-55
2021/08/28 00:56:46;;;;;;;9.17;4.80;;;;;;;14.61;100.00;101284.94;7395556;19;20415;-56
2021/08/28 00:59:16;;;;;;;3.77;3.40;;;;;;;14.64;100.00;101285.06;7400564;19;20396;-57
2021/08/28 01:01:47;;;;;;;6.00;3.37;;;;;;;14.56;100.00;101287.38;7377598;19;20486;-57
2021/08/28 01:04:21;;;;;;;6.43;4.30;;;;;;;14.57;100.00;101289.16;7399435;19;20380;-56
2021/08/28 01:06:58;;;;;;;5.03;3.90;;;;;;;14.57;100.00;101293.47;7396411;19;20483;-58
2021/08/28 01:09:33;;;;;;;5.10;3.83;;;;;;;14.60;100.00;101296.16;7400217;19;20380;-60
2021/08/28 01:12:07;;;;;;;5.67;4.20;;;;;;;14.56;100.00;101294.31;7396382;19;20429;-56
2021/08/28 01:14:38;;;;;;;4.80;3.83;;;;;;;14.53;100.00;101297.69;7400488;19;20908;-58
2021/08/28 01:17:09;;;;;;;7.37;4.80;;;;;;;14.56;100.00;101304.69;7375855;19;20478;-59
2021/08/28 01:19:47;;;;;;;5.03;4.17;;;;;;;14.57;100.00;101304.72;7400107;19;20380;-58
2021/08/28 01:22:19;;;;;;;4.23;3.83;;;;;;;14.54;100.00;101306.34;7394179;19;20414;-60
2021/08/28 01:24:51;;;;;;;5.20;4.60;;;;;;;14.56;100.00;101309.91;7400378;19;20464;-55
2021/08/28 01:27:22;;;;;;;8.07;4.90;;;;;;;14.56;100.00;101308.16;7395607;19;20468;-59
2021/08/28 01:29:55;;;;;;;5.90;4.20;;;;;;;14.57;100.00;101312.53;7399758;19;20451;-55
2021/08/28 01:32:25;;;;;;;5.53;4.60;;;;;;;14.61;100.00;101313.50;7395445;19;20764;-59
2021/08/28 01:34:57;;;;;;;5.80;4.87;;;;;;;14.60;100.00;101314.34;7399646;19;20400;-59
2021/08/28 01:37:26;;;;;;;5.40;4.57;;;;;;;14.51;100.00;101311.44;7394521;19;20482;-58
2021/08/28 01:39:58;;;;;;;8.03;5.00;;;;;;;14.41;100.00;101316.31;7399469;19;20376;-56
2021/08/28 01:42:32;;;;;;;6.27;5.00;;;;;;;14.49;100.00;101308.78;7393895;19;20443;-59
2021/08/28 01:45:07;;;;;;;7.63;4.60;;;;;;;14.51;100.00;101311.44;7399329;19;20404;-58
2021/08/28 01:47:36;;;;;;;6.23;4.80;;;;;;;14.49;100.00;101316.56;7391649;19;20478;-59
2021/08/28 01:50:09;;;;;;;7.50;4.93;;;;;;;14.44;100.00;101313.81;7398978;19;20454;-55
2021/08/28 01:52:39;;;;;;;7.73;5.47;;;;;;;14.48;100.00;101312.22;7391946;19;20482;-57
2021/08/28 01:55:16;;;;;;;6.27;5.00;;;;;;;14.51;100.00;101319.22;7398978;19;20526;-59
2021/08/28 01:57:46;;;;;;;10.20;5.03;;;;;;;14.48;100.00;101311.31;7375836;19;20796;-58
2021/08/28 02:00:19;;;;;;;9.87;4.83;;;;;;;14.47;100.00;101315.66;7405882;19;20387;-60
2021/08/28 02:02:49;;;;;;;8.83;5.70;;;;;;;14.51;100.00;101316.63;7397936;19;20478;-59
2021/08/28 02:05:19;;;;;;;9.73;5.23;;;;;;;14.60;100.00;101316.94;7406198;19;20408;-58
2021/08/28 02:07:52;;;;;;;6.90;5.07;;;;;;;14.65;100.00;101319.69;7374311;19;20490;-59
2021/08/28 02:10:24;;;;;;;6.60;4.97;;;;;;;14.64;100.00;101324.00;7405572;19;20390;-58
2021/08/28 02:12:57;;;;;;;4.80;3.57;;;;;;;14.55;100.00;101318.50;7398147;19;20410;-57
2021/08/28 02:15:33;;;;;;;3.63;3.30;;;;;;;14.39;100.00;101317.97;7405279;19;20383;-57
2021/08/28 02:18:11;;;;;;;3.90;3.30;;;;;;;14.28;100.00;101307.22;7398045;19;20451;-57
2021/08/28 02:20:43;;;;;;;11.50;2.90;;;;;;;14.22;100.00;101309.59;7404592;19;20451;-57
2021/08/28 02:23:14;;;;;;;4.83;3.00;;;;;;;14.29;100.00;101318.47;7377115;19;20490;-58
2021/08/28 02:25:49;;;;;;;4.87;3.03;;;;;;;14.27;100.00;101312.34;7403903;19;20394;-57
2021/08/28 02:28:24;;;;;;;9.97;3.73;;;;;;;14.28;100.00;101314.09;7397829;19;20490;-57
2021/08/28 02:30:57;;;;;;;3.80;3.30;;;;;;;14.29;100.00;101313.28;7405359;19;20390;-58
2021/08/28 02:33:26;;;;;;;4.13;3.70;;;;;;;14.27;100.00;101314.94;7377027;19;20468;-56
2021/08/28 02:35:56;;;;;;;4.10;3.57;;;;;;;14.27;100.00;101320.13;7402765;19;20383;-57
2021/08/28 02:38:26;;;;;;;4.07;3.60;;;;;;;14.26;100.00;101319.25;7397660;19;20423;-56
2021/08/28 02:40:57;;;;;;;4.57;3.57;;;;;;;14.31;100.00;101316.84;7405127;19;20412;-58
2021/08/28 02:43:28;;;;;;;4.80;3.87;;;;;;;14.36;100.00;101323.03;7397994;19;20490;-57
2021/08/28 02:46:01;;;;;;;5.63;3.97;;;;;;;14.37;100.00;101313.56;7404145;19;20398;-57
2021/08/28 02:48:33;;;;;;;5.27;4.10;;;;;;;14.32;100.00;101316.00;7401299;19;20415;-58
2021/08/28 02:51:06;;;;;;;6.17;4.60;;;;;;;14.31;100.00;101303.84;7405666;19;20467;-53
2021/08/28 02:53:37;;;;;;;5.30;4.17;;;;;;;14.30;100.00;101302.06;7377723;19;20977;-58
2021/08/28 02:56:07;;;;;;;4.53;4.13;;;;;;;14.29;100.00;101311.56;7402217;19;20453;-56
2021/08/28 02:58:37;;;;;;;7.57;4.70;;;;;;;14.27;100.00;101315.84;7400606;19;20695;-57
2021/08/28 03:01:09;;;;;;;6.03;4.50;;;;;;;14.29;100.00;101314.16;7404196;19;20387;-59
2021/08/28 03:03:41;;;;;;;6.47;5.43;;;;;;;14.29;100.00;101315.88;7400238;19;20701;-58
2021/08/28 03:06:11;;;;;;;5.10;4.60;;;;;;;14.31;100.00;101314.22;7403710;19;20439;-58
2021/08/28 03:08:43;;;;;;;32.53;5.77;;;;;;;14.27;100.00;101308.06;7386939;19;20483;-57
2021/08/28 03:11:14;;;;;;;8.37;5.30;;;;;;;14.28;100.00;101312.41;7403964;19;20666;-58
2021/08/28 03:13:43;;;;;;;8.90;5.13;;;;;;;14.27;100.00;101313.25;7400136;19;20431;-58
2021/08/28 03:16:18;;;;;;;6.47;5.07;;;;;;;14.24;100.00;101317.41;7402214;19;20394;-58
2021/08/28 03:18:49;;;;;;;39.40;6.37;;;;;;;14.24;100.00;101327.78;7400839;19;20428;-58
2021/08/28 03:21:19;;;;;;;12.23;5.97;;;;;;;14.27;100.00;101325.31;7400165;19;20463;-61
2021/08/28 03:23:50;;;;;;;9.47;5.53;;;;;;;14.25;100.00;101330.44;7403523;19;20395;-57
2021/08/28 03:26:23;;;;;;;6.40;5.37;;;;;;;14.34;100.00;101326.41;7399572;19;20447;-56
2021/08/28 03:28:54;;;;;;;42.20;6.27;;;;;;;14.34;100.00;101327.31;7403252;19;20388;-58
2021/08/28 03:31:28;;;;;;;56.37;7.03;;;;;;;14.32;100.00;101321.19;7398567;19;20868;-58
2021/08/28 03:34:00;;;;;;;12.27;5.60;;;;;;;14.33;100.00;101330.72;7402671;19;20403;-58
2021/08/28 03:36:30;;;;;;;18.70;5.80;;;;;;;14.32;100.00;101328.97;7398610;19;20392;-58
2021/08/28 03:38:59;;;;;;;6.83;4.90;;;;;;;14.30;100.00;101331.50;7400974;19;20390;-58
2021/08/28 03:41:29;;;;;;;5.37;4.70;;;;;;;14.28;100.00;101335.78;7399618;19;20392;-56
2021/08/28 03:43:58;;;;;;;5.57;4.47;;;;;;;14.20;100.00;101329.41;7402691;19;20386;-58
2021/08/28 03:46:33;;;;;;;5.93;4.80;;;;;;;14.25;100.00;101329.59;7398897;19;20392;-57
2021/08/28 03:49:02;;;;;;;5.73;4.17;;;;;;;14.21;100.00;101333.78;7402574;19;20395;-58
2021/08/28 03:51:33;;;;;;;3.97;3.60;;;;;;;14.16;100.00;101336.19;7399315;19;20398;-58
2021/08/28 03:54:03;;;;;;;5.47;3.90;;;;;;;14.21;100.00;101335.47;7400818;19;20466;-58
2021/08/28 03:56:33;;;;;;;5.37;4.60;;;;;;;14.25;100.00;101337.38;7398684;19;20447;-58
2021/08/28 03:59:03;;;;;;;60.27;7.53;;;;;;;14.27;100.00;101338.31;7400460;19;20396;-58
2021/08/28 04:01:35;;;;;;;4.30;3.80;;;;;;;14.26;100.00;101333.94;7398446;19;20388;-57
2021/08/28 04:04:06;;;;;;;7.80;4.50;;;;;;;14.15;100.00;101329.25;7402504;19;20877;-59
2021/08/28 04:06:35;;;;;;;4.27;3.87;;;;;;;14.13;100.00;101336.09;7394947;19;20388;-56
2021/08/28 04:09:04;;;;;;;3.90;3.50;;;;;;;14.12;100.00;101342.13;7402720;19;20468;-58
2021/08/28 04:11:34;;;;;;;5.03;3.90;;;;;;;14.14;100.00;101347.34;7395573;19;20412;-59
2021/08/28 04:14:03;;;;;;;3.80;3.30;;;;;;;14.10;100.00;101342.88;7400718;19;20420;-58
2021/08/28 04:16:35;;;;;;;6.40;3.63;;;;;;;14.13;100.00;101343.88;7384989;19;20403;-56
2021/08/28 04:19:05;;;;;;;12.13;4.57;;;;;;;14.09;100.00;101349.78;7399931;19;20414;-56
2021/08/28 04:21:35;;;;;;;4.90;3.90;;;;;;;14.11;100.00;101353.28;7393386;19;20420;-57
2021/08/28 04:24:04;;;;;;;10.33;3.70;;;;;;;14.13;100.00;101356.84;7401558;19;20409;-58
2021/08/28 04:26:34;;;;;;;4.50;3.90;;;;;;;14.13;100.00;101350.78;7394454;19;20455;-57
2021/08/28 04:29:03;;;;;;;4.43;4.00;;;;;;;14.14;100.00;101348.25;7401181;19;20396;-57
2021/08/28 04:31:35;;;;;;;4.77;3.80;;;;;;;14.11;100.00;101345.50;7394809;19;20692;-57
2021/08/28 04:34:05;;;;;;;5.03;4.00;;;;;;;14.10;100.00;101350.66;7399615;19;20404;-56
2021/08/28 04:36:35;;;;;;;4.83;4.00;;;;;;;14.09;100.00;101360.16;7393353;19;20466;-59
2021/08/28 04:39:04;;;;;;;4.80;3.80;;;;;;;14.08;100.00;101358.38;7399445;19;20472;-58
2021/08/28 04:41:34;;;;;;;5.87;4.80;;;;;;;14.09;100.00;101352.38;7394345;19;20471;-59
2021/08/28 04:44:03;;;;;;;8.40;5.07;;;;;;;14.11;100.00;101361.09;7400768;19;20404;-58
2021/08/28 04:46:35;;;;;;;10.73;5.90;;;;;;;14.17;100.00;101357.84;7383653;19;20460;-58
2021/08/28 04:49:05;;;;;;;6.17;5.50;;;;;;;14.15;100.00;101360.38;7400647;19;20391;-58
2021/08/28 04:51:34;;;;;;;7.53;5.90;;;;;;;14.06;100.00;101353.97;7393346;19;20467;-57
2021/08/28 04:54:04;;;;;;;8.30;5.87;;;;;;;14.08;100.00;101363.59;7399475;19;20455;-58
2021/08/28 04:56:33;;;;;;;8.30;5.93;;;;;;;14.04;100.00;101367.78;7393682;19;20463;-59
2021/08/28 04:59:03;;;;;;;8.53;6.10;;;;;;;14.06;100.00;101370.44;7398620;19;20406;-56
2021/08/28 05:01:32;;;;;;;8.90;6.60;;;;;;;14.14;100.00;101374.19;7393918;19;20467;-56
2021/08/28 05:04:05;;;;;;;11.03;7.17;;;;;;;14.18;100.00;101370.88;7400106;19;20379;-56
2021/08/28 05:06:35;;;;;;;13.87;7.50;;;;;;;14.27;100.00;101372.03;7393260;19;20879;-58
2021/08/28 05:09:04;;;;;;;10.17;7.77;;;;;;;14.77;100.00;101361.69;7399296;19;20850;-56
2021/08/28 05:11:34;;;;;;;9.50;7.30;;;;;;;14.88;100.00;101354.28;7393086;19;20428;-57
2021/08/28 05:14:03;;;;;;;14.40;9.00;;;;;;;14.85;100.00;101351.56;7400285;19;20396;-54
2021/08/28 05:16:33;;;;;;;28.83;17.60;;;;;;;14.94;100.00;101353.59;7392619;19;20412;-58
2021/08/28 05:19:05;;;;;;;28.00;20.30;;;;;;;14.83;100.00;101345.44;7398501;19;20849;-58
2021/08/28 05:21:34;;;;;;;14.10;10.00;;;;;;;14.79;100.00;101349.66;7393286;19;20740;-54
2021/08/28 05:24:04;;;;;;;12.03;9.50;;;;;;;14.66;100.00;101340.53;7399492;19;20392;-56
2021/08/28 05:26:34;;;;;;;19.80;9.90;;;;;;;14.54;100.00;101351.38;7391065;19;20850;-59
2021/08/28 05:29:03;;;;;;;36.10;18.77;;;;;;;14.38;100.00;101354.25;7399719;19;20462;-57
2021/08/28 05:31:33;;;;;;;29.00;18.17;;;;;;;14.69;100.00;101360.53;7391712;19;20463;-58
2021/08/28 05:34:05;;;;;;;43.03;28.43;;;;;;;14.73;100.00;101357.22;7398159;19;20459;-57
2021/08/28 05:36:34;;;;;;;70.03;40.63;;;;;;;14.81;100.00;101353.19;7392056;19;20384;-58
2021/08/28 05:39:04;;;;;;;24.70;16.10;;;;;;;14.71;100.00;101358.84;7398080;19;20468;-56
2021/08/28 05:41:33;;;;;;;19.53;13.43;;;;;;;14.67;100.00;101364.78;7392154;19;20411;-56
2021/08/28 05:44:03;;;;;;;24.50;13.30;;;;;;;14.54;100.00;101361.75;7397260;19;20394;-58
2021/08/28 05:46:32;;;;;;;24.17;14.10;;;;;;;14.47;100.00;101362.38;7373736;19;20895;-57
2021/08/28 05:49:04;;;;;;;21.63;14.27;;;;;;;14.40;100.00;101370.75;7398818;19;20535;-58
2021/08/28 05:51:34;;;;;;;22.67;14.70;;;;;;;14.40;100.00;101369.06;7391352;19;20407;-58
2021/08/28 05:54:04;;;;;;;24.10;14.63;;;;;;;14.32;100.00;101373.09;7398707;19;20443;-56
2021/08/28 05:56:33;;;;;;;22.73;15.37;;;;;;;14.39;100.00;101384.56;7390892;19;20368;-58
2021/08/28 05:59:02;;;;;;;24.07;15.77;;;;;;;14.45;100.00;101385.69;7397632;19;20462;-57
2021/08/28 06:01:32;;;;;;;29.23;14.77;;;;;;;14.49;100.00;101391.88;7390000;19;20431;-57
2021/08/28 06:04:05;;;;;;;23.00;15.40;;;;;;;14.47;100.00;101382.25;7398154;19;20380;-56
2021/08/28 06:06:34;;;;;;;27.60;14.87;;;;;;;14.47;100.00;101377.97;7390286;19;20384;-58
2021/08/28 06:09:04;;;;;;;24.20;14.77;;;;;;;14.45;100.00;101388.28;7398226;19;20846;-58
2021/08/28 06:11:33;;;;;;;17.20;13.40;;;;;;;14.36;100.00;101385.34;7391269;19;20400;-57
2021/08/28 06:14:03;;;;;;;21.90;13.17;;;;;;;14.45;100.00;101390.88;7397896;19;20413;-58
2021/08/28 06:16:32;;;;;;;20.27;13.57;;;;;;;14.42;100.00;101390.75;7390175;19;20402;-57
2021/08/28 06:19:05;;;;;;;19.83;12.73;;;;;;;14.44;100.00;101394.31;7396764;19;20395;-57
2021/08/28 06:21:34;;;;;;;23.40;13.97;;;;;;;14.47;100.00;101385.75;7366842;19;20451;-57
2021/08/28 06:24:04;;;;;;;20.17;12.43;;;;;;;14.51;100.00;101386.75;7396744;19;20392;-58
2021/08/28 06:26:33;;;;;;;18.73;13.53;;;;;;;14.55;100.00;101394.69;7381105;19;20728;-59
2021/08/28 06:29:04;;;;;;;20.40;12.83;;;;;;;14.54;100.00;101397.22;7397603;19;20390;-58
2021/08/28 06:31:34;;;;;;;17.23;12.33;;;;;;;14.58;100.00;101401.69;7390838;19;20428;-58
2021/08/28 06:34:06;;;;;;;22.90;13.37;;;;;;;14.64;100.00;101403.63;7397480;19;20391;-58
2021/08/28 06:36:36;;;;;;;17.97;12.30;;;;;;;14.66;100.00;101402.84;7388106;19;20447;-57
2021/08/28 06:39:05;;;;;;;14.47;11.47;;;;;;;14.66;100.00;101399.38;7397669;19;20463;-57
2021/08/28 06:41:35;;;;;;;17.30;11.50;;;;;;;14.69;100.00;101402.97;7390322;19;20418;-58
2021/08/28 06:44:04;;;;;;;20.90;13.70;;;;;;;14.74;100.00;101407.41;7401272;19;20395;-57
2021/08/28 06:46:34;;;;;;;17.50;11.70;;;;;;;14.74;100.00;101402.22;7396250;19;20869;-57
2021/08/28 06:49:06;;;;;;;17.60;12.10;;;;;;;14.72;100.00;101397.00;7404781;19;20396;-54
2021/08/28 06:51:36;;;;;;;35.13;19.00;;;;;;;14.77;100.00;101402.38;7398508;19;20479;-57
2021/08/28 06:54:05;;;;;;;16.87;11.43;;;;;;;14.71;100.00;101390.91;7403735;19;20392;-57
2021/08/28 06:56:35;;;;;;;24.83;13.50;;;;;;;14.82;100.00;101388.72;7393834;19;20463;-56
2021/08/28 06:59:04;;;;;;;18.03;11.03;;;;;;;14.78;100.00;101388.56;7404479;19;20472;-57
2021/08/28 07:01:34;;;;;;;15.70;10.10;;;;;;;14.78;100.00;101385.97;7396427;19;20419;-57
2021/08/28 07:04:07;;;;;;;17.57;10.77;;;;;;;14.82;100.00;101387.84;7404230;19;20840;-57
2021/08/28 07:06:37;;;;;;;17.70;10.90;;;;;;;14.82;100.00;101391.31;7396494;19;20476;-56
2021/08/28 07:09:06;;;;;;;19.23;12.20;;;;;;;14.85;100.00;101390.53;7403970;19;20455;-58
2021/08/28 07:11:36;;;;;;;23.37;13.97;;;;;;;15.05;100.00;101398.13;7395443;19;20475;-58
2021/08/28 07:14:05;;;;;;;29.80;18.00;;;;;;;15.11;100.00;101396.63;7403919;19;20396;-57
2021/08/28 07:16:35;;;;;;;58.00;36.90;;;;;;;15.20;100.00;101393.44;7395953;19;20439;-58
2021/08/28 07:19:07;;;;;;;38.60;22.50;;;;;;;15.28;100.00;101385.00;7403390;19;20421;-58
2021/08/28 07:21:37;;;;;;;17.83;9.73;;;;;;;15.17;100.00;101375.13;7396476;19;20426;-57
2021/08/28 07:24:07;;;;;;;13.93;9.60;;;;;;;15.15;100.00;101382.00;7403825;19;20447;-57
2021/08/28 07:26:36;;;;;;;12.87;8.77;;;;;;;15.12;100.00;101380.19;7385816;19;20849;-56
2021/08/28 07:29:06;;;;;;;15.63;8.23;;;;;;;15.12;100.00;101384.50;7402725;19;20467;-55
2021/08/28 07:31:35;;;;;;;13.93;8.37;;;;;;;15.09;100.00;101389.59;7395991;19;20487;-57
2021/08/28 07:34:08;;;;;;;10.10;7.80;;;;;;;15.18;100.00;101389.88;7404060;19;20417;-56
2021/08/28 07:36:37;;;;;;;25.50;14.43;;;;;;;15.22;100.00;101383.97;7395018;19;20396;-59
2021/08/28 07:39:07;;;;;;;13.63;8.57;;;;;;;15.27;100.00;101380.66;7402865;19;20455;-54
2021/08/28 07:41:36;;;;;;;9.77;7.17;;;;;;;15.21;100.00;101384.81;7395562;19;20499;-57
2021/08/28 07:44:06;;;;;;;25.43;16.67;;;;;;;15.39;100.00;101383.63;7401532;19;20468;-55
2021/08/28 07:46:36;;;;;;;8.37;6.17;;;;;;;15.35;100.00;101386.97;7395172;19;20464;-57
2021/08/28 07:49:08;;;;;;;18.30;11.47;;;;;;;15.41;100.00;101381.97;7403019;19;20395;-58
2021/08/28 07:51:37;;;;;;;8.07;6.10;;;;;;;15.45;100.00;101377.75;7395128;19;20479;-57
2021/08/28 07:54:07;;;;;;;11.70;6.33;;;;;;;15.47;100.00;101387.34;7402740;19;20671;-57
2021/08/28 07:56:36;;;;;;;30.73;17.70;;;;;;;15.52;100.00;101383.19;7385513;19;20384;-56
2021/08/28 07:59:06;;;;;;;14.85;6.55;;;;;;;15.49;100.00;101382.22;7402684;19;20400;-54
2021/08/28 08:01:35;;;;;;;18.90;10.10;;;;;;;15.51;100.00;101381.44;7393848;19;20912;-56
2021/08/28 08:04:08;;;;;;;9.17;6.57;;;;;;;15.48;100.00;101386.50;7402120;19;20397;-57
2021/08/28 08:06:38;;;;;;;9.90;8.17;;;;;;;15.53;100.00;101389.25;7394531;19;20901;-58
2021/08/28 08:09:07;;;;;;;11.73;7.20;;;;;;;15.52;100.00;101385.78;7402234;19;20388;-58
2021/08/28 08:11:37;;;;;;;9.83;6.43;;;;;;;15.53;100.00;101384.06;7394998;19;20420;-57
2021/08/28 08:14:06;;;;;;;9.97;7.17;;;;;;;15.52;100.00;101387.50;7402086;19;20396;-58
2021/08/28 08:16:36;;;;;;;18.53;11.53;;;;;;;15.54;100.00;101383.25;7393377;19;20464;-57
2021/08/28 08:19:08;;;;;;;8.30;6.13;;;;;;;15.48;100.00;101383.91;7401861;19;20854;-58
2021/08/28 08:21:37;;;;;;;13.47;9.30;;;;;;;15.48;100.00;101383.91;7391688;19;20490;-58
2021/08/28 08:24:07;;;;;;;5.83;5.03;;;;;;;15.46;100.00;101387.28;7401864;19;20917;-58
2021/08/28 08:26:36;;;;;;;15.40;7.43;;;;;;;15.48;100.00;101383.91;7394032;19;20384;-57
2021/08/28 08:29:06;;;;;;;12.77;9.00;;;;;;;15.47;100.00;101392.56;7401529;19;20412;-56
2021/08/28 08:31:35;;;;;;;13.20;8.50;;;;;;;15.56;100.00;101391.97;7394611;19;20724;-58
2021/08/28 08:34:08;;;;;;;9.27;6.27;;;;;;;15.49;100.00;101395.22;7401645;19;20645;-57
2021/08/28 08:36:37;;;;;;;12.87;5.77;;;;;;;15.39;100.00;101394.03;7393478;19;20388;-55
2021/08/28 08:39:07;;;;;;;10.23;6.20;;;;;;;15.24;100.00;101399.63;7400182;19;20459;-58
2021/08/28 08:41:36;;;;;;;5.00;4.30;;;;;;;15.31;100.00;101403.28;7391629;19;20499;-56
2021/08/28 08:44:07;;;;;;;7.00;5.23;;;;;;;15.36;100.00;101404.31;7401222;19;20400;-58
2021/08/28 08:46:36;;;;;;;6.90;4.83;;;;;;;15.38;100.00;101403.53;7393378;19;20854;-58
2021/08/28 08:49:09;;;;;;;7.03;3.50;;;;;;;15.39;100.00;101400.09;7400985;19;20405;-56
2021/08/28 08:51:39;;;;;;;8.23;6.10;;;;;;;15.58;100.00;101410.22;7393753;19;20454;-58
2021/08/28 08:54:09;;;;;;;7.27;5.20;;;;;;;15.48;100.00;101404.72;7400857;19;20459;-57
2021/08/28 08:56:39;;;;;;;8.33;4.70;;;;;;;15.66;100.00;101408.75;7393274;19;20964;-58
2021/08/28 08:59:08;;;;;;;15.47;11.27;;;;;;;15.82;100.00;101409.19;7399057;19;20411;-58
2021/08/28 09:01:38;;;;;;;3.00;2.70;;;;;;;15.75;100.00;101403.81;7394848;19;20522;-58
2021/08/28 09:04:10;;;;;;;3.53;2.77;;;;;;;15.82;100.00;101397.09;7400502;19;20396;-58
2021/08/28 09:06:45;;;;;;;15.67;10.50;;;;;;;15.92;100.00;101403.47;7391371;19;20467;-58
2021/08/28 09:09:14;;;;;;;5.80;3.20;;;;;;;16.05;100.00;101404.75;7400385;19;20700;-59
2021/08/28 09:12:00;;;;;;;4.47;3.70;;;;;;;16.06;100.00;101396.94;7392706;19;20494;-55
2021/08/28 09:14:29;;;;;;;4.70;3.20;;;;;;;16.03;100.00;101403.78;7399889;19;20409;-60
2021/08/28 09:16:59;;;;;;;2.90;2.27;;;;;;;15.84;100.00;101397.13;7392597;19;20522;-58
2021/08/28 09:19:42;;;;;;;3.40;2.53;;;;;;;15.74;100.00;101389.03;7398322;19;20383;-57
2021/08/28 09:22:23;;;;;;;4.20;2.57;;;;;;;15.77;100.00;101394.34;7391789;19;20890;-58
2021/08/28 09:24:55;;;;;;;3.60;2.43;;;;;;;15.68;100.00;101398.38;7399579;19;20703;-54
2021/08/28 09:27:36;;;;;;;3.70;3.03;;;;;;;15.76;100.00;101396.91;7392136;19;20412;-57
2021/08/28 09:30:22;;;;;;;2.53;2.13;;;;;;;15.64;100.00;101405.22;7399830;19;20412;-54
2021/08/28 09:32:54;;;;;;;2.57;2.37;;;;;;;15.62;100.00;101401.66;7388226;19;20934;-57
2021/08/28 09:35:27;;;;;;;2.67;2.47;;;;;;;15.64;100.00;101407.81;7399207;19;20699;-56
2021/08/28 09:37:59;;;;;;;2.37;2.17;;;;;;;15.61;100.00;101405.09;7392099;19;20421;-57
2021/08/28 09:40:31;;;;;;;3.93;2.70;;;;;;;15.70;100.00;101397.59;7397515;19;20388;-57
2021/08/28 09:43:04;;;;;;;8.80;6.93;;;;;;;15.86;100.00;101405.88;7391860;19;20486;-57
2021/08/28 09:45:36;;;;;;;3.17;2.80;;;;;;;15.84;100.00;101403.22;7398753;19;20420;-57
2021/08/28 09:48:09;;;;;;;15.87;8.63;;;;;;;16.01;100.00;101395.94;7392073;19;20411;-57
2021/08/28 09:50:42;;;;;;;20.83;14.40;;;;;;;16.04;100.00;101402.94;7398812;19;20391;-57
2021/08/28 09:53:14;;;;;;;6.13;5.10;;;;;;;15.99;100.00;101399.34;7391776;19;20408;-57
2021/08/28 09:55:44;;;;;;;4.47;3.63;;;;;;;16.04;100.00;101403.84;7398259;19;20388;-57
2021/08/28 09:58:14;;;;;;;3.07;2.77;;;;;;;15.96;100.00;101404.44;7390507;19;20419;-55
2021/08/28 10:00:45;;;;;;;3.40;3.10;;;;;;;15.91;100.00;101391.28;7397946;19;20392;-57
2021/08/28 10:03:15;;;;;;;4.07;3.67;;;;;;;16.12;100.00;101388.47;7391705;19;20722;-55
2021/08/28 10:05:48;;;;;;;5.33;3.23;;;;;;;16.00;100.00;101390.69;7398074;19;20403;-55
2021/08/28 10:08:18;;;;;;;32.83;20.63;;;;;;;16.13;100.00;101389.31;7391748;19;20475;-55
2021/08/28 10:10:48;;;;;;;11.17;6.90;;;;;;;16.18;100.00;101392.94;7398253;19;20415;-54
2021/08/28 10:13:33;;;;;;;8.30;4.70;;;;;;;16.24;100.00;101387.91;7390341;19;20483;-55
2021/08/28 10:16:03;;;;;;;5.10;4.07;;;;;;;16.30;100.00;101390.69;7397313;19;20669;-57
2021/08/28 10:18:34;;;;;;;2.90;2.70;;;;;;;16.23;100.00;101391.38;7392568;19;20435;-56
2021/08/28 10:21:07;;;;;;;3.63;3.27;;;;;;;16.26;100.00;101394.03;7404754;19;20387;-58
2021/08/28 10:23:38;;;;;;;3.47;3.10;;;;;;;15.90;100.00;101386.91;7398728;19;20412;-56
2021/08/28 10:26:12;;;;;;;3.57;2.90;;;;;;;15.95;100.00;101394.88;7405041;19;20387;-57
2021/08/28 10:28:42;;;;;;;4.77;4.30;;;;;;;16.15;100.00;101387.66;7398238;19;20408;-56
2021/08/28 10:31:13;;;;;;;3.10;2.80;;;;;;;16.00;100.00;101388.97;7405183;19;20396;-54
2021/08/28 10:33:43;;;;;;;3.03;2.60;;;;;;;15.90;100.00;101387.78;7396516;19;20973;-56
2021/08/28 10:36:15;;;;;;;4.37;3.30;;;;;;;15.92;100.00;101399.16;7404572;19;20386;-56
2021/08/28 10:38:47;;;;;;;4.70;3.40;;;;;;;15.91;100.00;101399.94;7404258;19;20411;-57
2021/08/28 10:41:17;;;;;;;3.27;2.63;;;;;;;15.74;100.00;101401.19;7404266;19;20398;-57
2021/08/28 10:43:47;;;;;;;3.97;3.20;;;;;;;15.85;100.00;101398.91;7404259;19;20429;-55
2021/08/28 10:46:21;;;;;;;3.20;2.90;;;;;;;15.86;100.00;101395.47;7404451;19;20390;-56
2021/08/28 10:48:52;;;;;;;3.67;2.80;;;;;;;15.97;100.00;101401.91;7403873;19;20440;-57
2021/08/28 10:51:29;;;;;;;5.97;2.30;;;;;;;15.97;100.00;101394.09;7396674;19;20412;-55
2021/08/28 10:54:01;;;;;;;5.07;2.87;;;;;;;16.08;100.00;101385.69;7404252;19;20455;-56
2021/08/28 10:56:39;;;;;;;4.83;1.97;;;;;;;16.03;100.00;101394.28;7399970;19;20417;-58
2021/08/28 10:59:21;;;;;;;5.30;1.77;;;;;;;15.87;100.00;101392.00;7404760;19;20464;-58
2021/08/28 11:01:59;;;;;;;78.83;51.10;;;;;;;15.99;100.00;101402.81;7397040;19;20487;-58
2021/08/28 11:04:33;;;;;;;2.27;2.07;;;;;;;15.95;100.00;101393.19;7404475;19;20400;-57
2021/08/28 11:07:22;;;;;;;3.23;2.77;;;;;;;16.00;100.00;101404.59;7396533;19;20424;-59
2021/08/28 11:10:18;;;;;;;4.70;3.20;;;;;;;16.02;100.00;101408.13;7402617;19;20864;-58
2021/08/28 11:12:57;;;;;;;2.63;2.33;;;;;;;15.87;100.00;101405.03;7396395;19;20413;-56
2021/08/28 11:15:43;;;;;;;7.10;4.10;;;;;;;15.80;100.00;101407.44;7403386;19;20898;-57
2021/08/28 11:18:15;;;;;;;4.73;2.73;;;;;;;15.79;100.00;101417.78;7397087;19;20859;-56
2021/08/28 11:20:46;;;;;;;5.80;4.07;;;;;;;15.76;100.00;101410.81;7403472;19;20636;-56
2021/08/28 11:23:19;;;;;;;3.97;2.23;;;;;;;15.74;100.00;101414.19;7396150;19;20479;-57
2021/08/28 11:25:51;;;;;;;4.33;3.17;;;;;;;15.78;100.00;101414.31;7403044;19;20447;-57
2021/08/28 11:28:22;;;;;;;3.10;2.67;;;;;;;15.90;100.00;101412.94;7396294;19;20411;-58
2021/08/28 11:30:59;;;;;;;11.50;4.43;;;;;;;15.87;100.00;101418.94;7402144;19;20460;-56